createdAt,value
2023-03-22T00:00:56.009Z,8.85
2023-03-22T00:03:23.060Z,11.80
2023-03-22T00:05:49.593Z,9.48
2023-03-22T00:08:15.978Z,10.73
2023-03-22T00:10:42.449Z,11.63
2023-03-22T00:13:09.659Z,9.18
2023-03-22T00:15:38.114Z,11.52
2023-03-22T00:18:05.763Z,10.40
2023-03-22T00:20:33.701Z,15.48
2023-03-22T00:23:00.706Z,15.18
2023-03-22T00:25:28.305Z,15.27
2023-03-22T00:27:54.817Z,16.63
2023-03-22T00:30:21.365Z,20.42
2023-03-22T00:32:50.965Z,17.10
2023-03-22T00:35:17.561Z,20.17
2023-03-22T00:37:43.997Z,15.98
2023-03-22T00:40:14.103Z,17.88
2023-03-22T00:42:41.348Z,21.90
2023-03-22T00:45:08.940Z,31.27
2023-03-22T00:47:35.525Z,29.90
2023-03-22T00:50:02.351Z,30.38
2023-03-22T00:52:29.584Z,39.50
2023-03-22T00:54:56.411Z,33.47
2023-03-22T00:57:22.836Z,42.65
2023-03-22T00:59:49.517Z,31.23
2023-03-22T01:02:16.002Z,39.53
2023-03-22T01:04:46.942Z,34.88
2023-03-22T01:09:45.308Z,30.88
2023-03-22T01:12:12.136Z,38.67
2023-03-22T01:14:38.667Z,29.85
2023-03-22T01:17:05.422Z,39.25
2023-03-22T01:19:31.958Z,39.67
2023-03-22T01:21:58.363Z,38.05
2023-03-22T01:24:24.820Z,36.53
2023-03-22T01:26:51.414Z,34.85
2023-03-22T01:29:17.825Z,42.60
2023-03-22T01:31:44.567Z,40.63
2023-03-22T01:34:11.110Z,43.55
2023-03-22T01:36:37.580Z,39.25
2023-03-22T01:39:04.476Z,37.45
2023-03-22T01:41:35.072Z,40.75
2023-03-22T01:44:08.897Z,43.80
2023-03-22T01:46:35.414Z,35.72
2023-03-22T01:49:02.712Z,35.90
2023-03-22T01:51:29.522Z,34.88
2023-03-22T01:53:58.855Z,42.35
2023-03-22T01:56:26.849Z,35.65
2023-03-22T01:58:54.008Z,37.88
2023-03-22T02:01:21.126Z,26.33
2023-03-22T02:03:48.033Z,28.77
2023-03-22T02:06:14.568Z,34.05
2023-03-22T02:08:43.045Z,24.42
2023-03-22T02:11:13.164Z,23.70
2023-03-22T02:13:48.589Z,19.98
2023-03-22T02:16:14.985Z,19.63
2023-03-22T02:18:56.248Z,20.20
2023-03-22T02:21:47.464Z,15.48
2023-03-22T02:24:32.882Z,12.88
2023-03-22T02:27:09.211Z,14.73
2023-03-22T02:29:35.612Z,14.27
2023-03-22T02:32:16.961Z,12.85
2023-03-22T02:34:46.136Z,13.60
2023-03-22T02:37:32.816Z,12.25
2023-03-22T02:40:05.693Z,10.60
2023-03-22T02:42:32.095Z,9.57
2023-03-22T02:45:18.757Z,8.73
2023-03-22T02:48:04.501Z,10.95
2023-03-22T02:50:38.236Z,8.75
2023-03-22T02:53:34.383Z,9.90
2023-03-22T02:56:00.967Z,7.65
2023-03-22T02:58:30.424Z,8.30
2023-03-22T03:00:59.565Z,6.90
2023-03-22T03:03:30.085Z,10.02
2023-03-22T03:06:08.492Z,12.05
2023-03-22T03:08:35.410Z,9.30
2023-03-22T03:11:01.836Z,8.00
2023-03-22T03:13:28.271Z,6.32
2023-03-22T03:15:57.416Z,8.23
2023-03-22T03:18:32.792Z,7.47
2023-03-22T03:21:00.402Z,10.32
2023-03-22T03:23:29.622Z,9.18
2023-03-22T03:26:13.701Z,9.80
2023-03-22T03:28:55.475Z,11.68
2023-03-22T03:31:34.802Z,12.18
2023-03-22T03:34:11.087Z,14.75
2023-03-22T03:36:39.653Z,16.27
2023-03-22T03:39:08.832Z,20.83
2023-03-22T03:41:35.561Z,25.63
2023-03-22T03:44:02.892Z,27.25
2023-03-22T03:46:29.702Z,25.70
2023-03-22T03:48:59.514Z,34.00
2023-03-22T03:51:27.347Z,25.42
2023-03-22T03:53:53.971Z,31.02
2023-03-22T03:56:20.520Z,33.38
2023-03-22T03:58:46.934Z,30.70
2023-03-22T04:01:13.425Z,34.80
2023-03-22T04:03:39.851Z,34.40
2023-03-22T04:06:08.981Z,32.08
2023-03-22T04:08:35.596Z,31.92
2023-03-22T04:11:01.996Z,28.25
2023-03-22T04:13:29.809Z,31.58
2023-03-22T04:15:58.074Z,31.67
2023-03-22T04:18:24.602Z,28.48
2023-03-22T04:20:53.468Z,31.48
2023-03-22T04:23:22.512Z,32.33
2023-03-22T04:25:50.308Z,31.95
2023-03-22T04:28:19.746Z,32.20
2023-03-22T04:30:51.028Z,30.17
2023-03-22T04:33:22.803Z,30.63
2023-03-22T04:35:50.468Z,33.00
2023-03-22T04:38:17.915Z,33.67
2023-03-22T04:40:46.857Z,35.20
2023-03-22T04:43:13.991Z,37.45
2023-03-22T04:45:42.109Z,50.85
2023-03-22T04:48:10.607Z,37.90
2023-03-22T04:50:37.731Z,41.00
2023-03-22T04:53:04.313Z,35.45
2023-03-22T04:55:30.715Z,38.00
2023-03-22T04:57:57.247Z,39.28
2023-03-22T05:00:23.992Z,36.33
2023-03-22T05:02:50.717Z,35.25
2023-03-22T05:05:17.241Z,40.78
2023-03-22T05:07:43.645Z,39.22
2023-03-22T05:10:10.664Z,40.90
2023-03-22T05:12:37.062Z,38.28
2023-03-22T05:15:06.076Z,41.97
2023-03-22T05:17:32.647Z,39.67
2023-03-22T05:19:59.138Z,43.67
2023-03-22T05:22:25.509Z,36.38
2023-03-22T05:24:52.044Z,40.00
2023-03-22T05:27:30.306Z,41.28
2023-03-22T05:29:56.738Z,40.15
2023-03-22T05:32:25.590Z,40.83
2023-03-22T05:34:55.981Z,45.38
2023-03-22T05:37:22.512Z,35.65
2023-03-22T05:39:48.968Z,35.70
2023-03-22T05:42:15.508Z,37.13
2023-03-22T05:44:41.946Z,35.42
2023-03-22T05:47:08.419Z,38.47
2023-03-22T05:49:34.836Z,44.35
2023-03-22T05:52:04.294Z,43.92
2023-03-22T05:54:31.391Z,44.50
2023-03-22T05:56:57.779Z,44.70
2023-03-22T05:59:24.324Z,36.70
2023-03-22T06:01:51.197Z,45.60
2023-03-22T06:04:18.764Z,44.05
2023-03-22T06:06:45.423Z,40.95
2023-03-22T06:09:17.436Z,39.60
2023-03-22T06:11:44.457Z,41.15
2023-03-22T06:14:11.055Z,34.85
2023-03-22T06:16:37.610Z,38.30
2023-03-22T06:19:04.160Z,35.00
2023-03-22T06:21:30.637Z,33.25
2023-03-22T06:23:57.042Z,30.92
2023-03-22T06:26:25.879Z,31.08
2023-03-22T06:28:52.548Z,28.63
2023-03-22T06:31:19.031Z,25.45
2023-03-22T06:33:45.667Z,27.67
2023-03-22T06:36:12.106Z,25.85
2023-03-22T06:38:38.561Z,30.75
2023-03-22T06:41:05.129Z,27.27
2023-03-22T06:43:31.524Z,22.70
2023-03-22T06:45:57.954Z,23.75
2023-03-22T06:48:24.460Z,21.73
2023-03-22T06:50:50.897Z,21.77
2023-03-22T06:53:17.492Z,21.05
2023-03-22T06:55:43.919Z,17.00
2023-03-22T06:58:10.557Z,16.80
2023-03-22T07:00:38.814Z,19.27
2023-03-22T07:03:05.813Z,19.15
2023-03-22T07:05:32.263Z,16.80
2023-03-22T07:07:58.855Z,21.00
2023-03-22T07:10:25.817Z,19.75
2023-03-22T07:12:52.301Z,22.42
2023-03-22T07:15:20.148Z,25.85
2023-03-22T07:17:46.650Z,26.20
2023-03-22T07:20:13.160Z,30.38
2023-03-22T07:22:39.748Z,28.70
2023-03-22T07:25:08.292Z,30.70
2023-03-22T07:27:34.706Z,34.25
2023-03-22T07:30:01.093Z,29.70
2023-03-22T07:32:27.586Z,35.70
2023-03-22T07:34:54.035Z,34.72
2023-03-22T07:37:20.581Z,30.90
2023-03-22T07:39:46.971Z,33.55
2023-03-22T07:42:13.430Z,32.63
2023-03-22T07:44:39.971Z,32.65
2023-03-22T07:47:06.373Z,30.42
2023-03-22T07:49:32.796Z,34.25
2023-03-22T07:51:59.650Z,32.53
2023-03-22T07:54:33.554Z,24.27
2023-03-22T07:57:01.203Z,28.48
2023-03-22T07:59:29.960Z,31.60
2023-03-22T08:01:56.538Z,30.90
2023-03-22T08:04:23.069Z,33.47
2023-03-22T08:06:49.998Z,31.27
2023-03-22T08:09:16.580Z,29.63
2023-03-22T08:11:42.982Z,34.05
2023-03-22T08:14:09.392Z,30.52
2023-03-22T08:16:36.010Z,40.70
2023-03-22T08:19:02.606Z,33.97
2023-03-22T08:21:29.165Z,33.35
2023-03-22T08:23:55.923Z,33.22
2023-03-22T08:26:24.991Z,33.75
2023-03-22T08:28:51.955Z,36.42
2023-03-22T08:31:19.052Z,34.63
2023-03-22T08:33:46.290Z,35.00
2023-03-22T08:36:14.646Z,38.03
2023-03-22T08:38:46.474Z,46.20
2023-03-22T08:41:15.158Z,43.13
2023-03-22T08:43:42.049Z,48.58
2023-03-22T08:46:09.057Z,50.60
2023-03-22T08:48:38.124Z,50.92
2023-03-22T08:51:06.072Z,44.90
2023-03-22T08:53:32.543Z,49.63
2023-03-22T08:56:02.596Z,50.03
2023-03-22T08:58:29.072Z,49.20
2023-03-22T09:00:57.282Z,52.20
2023-03-22T09:03:24.931Z,51.88
2023-03-22T09:05:51.680Z,51.03
2023-03-22T09:08:19.757Z,44.85
2023-03-22T09:10:48.339Z,45.03
2023-03-22T09:13:17.637Z,45.45
2023-03-22T09:15:45.045Z,49.88
2023-03-22T09:18:13.941Z,46.67
2023-03-22T09:20:40.825Z,51.95
2023-03-22T09:23:07.404Z,51.53
2023-03-22T09:25:33.914Z,50.20
2023-03-22T09:28:00.291Z,51.95
2023-03-22T09:30:27.246Z,48.50
2023-03-22T09:32:53.698Z,51.25
2023-03-22T09:35:20.183Z,47.97
2023-03-22T09:37:49.256Z,46.30
2023-03-22T09:40:17.416Z,49.33
2023-03-22T09:42:48.436Z,45.90
2023-03-22T09:45:20.171Z,49.35
2023-03-22T09:47:48.628Z,47.00
2023-03-22T09:50:22.929Z,41.85
2023-03-22T09:52:50.466Z,48.30
2023-03-22T09:55:30.477Z,49.28
2023-03-22T09:58:07.610Z,49.53
2023-03-22T10:00:51.869Z,46.55
2023-03-22T10:03:23.537Z,45.90
2023-03-22T10:05:57.426Z,43.40
2023-03-22T10:08:30.083Z,43.15
2023-03-22T10:10:57.650Z,49.78
2023-03-22T10:13:41.519Z,54.60
2023-03-22T10:16:12.011Z,47.90
2023-03-22T10:18:40.782Z,48.65
2023-03-22T10:21:09.203Z,50.78
2023-03-22T10:23:39.342Z,60.85
2023-03-22T10:26:07.314Z,51.03
2023-03-22T10:28:41.282Z,50.65
2023-03-22T10:31:14.297Z,53.50
2023-03-22T10:33:50.196Z,33.95
2023-03-22T10:36:18.349Z,35.33
2023-03-22T10:38:47.921Z,37.90
2023-03-22T10:41:18.686Z,32.90
2023-03-22T10:43:47.604Z,30.35
2023-03-22T10:46:17.897Z,31.73
2023-03-22T10:48:45.494Z,36.30
2023-03-22T10:51:18.090Z,29.63
2023-03-22T10:53:46.609Z,26.63
2023-03-22T10:56:15.630Z,29.13
2023-03-22T10:58:46.390Z,31.33
2023-03-22T11:01:24.489Z,27.05
2023-03-22T11:03:52.110Z,28.92
2023-03-22T11:06:19.719Z,27.35
2023-03-22T11:08:47.606Z,26.40
2023-03-22T11:11:19.535Z,28.55
2023-03-22T11:14:12.170Z,26.73
2023-03-22T11:16:47.876Z,34.72
2023-03-22T11:19:17.909Z,33.33
2023-03-22T11:21:45.156Z,24.97
2023-03-22T11:24:15.849Z,30.40
2023-03-22T11:26:42.420Z,31.00
2023-03-22T11:29:18.879Z,25.50
2023-03-22T11:32:03.759Z,24.85
2023-03-22T11:34:31.673Z,30.05
2023-03-22T11:37:01.540Z,29.75
2023-03-22T11:39:29.400Z,28.65
2023-03-22T11:42:01.489Z,27.33
2023-03-22T11:44:29.063Z,30.52
2023-03-22T11:46:58.078Z,29.15
2023-03-22T11:49:27.102Z,28.65
2023-03-22T11:51:54.687Z,23.38
2023-03-22T11:54:29.896Z,25.40
2023-03-22T11:57:02.037Z,25.65
2023-03-22T11:59:38.806Z,21.13
2023-03-22T12:02:05.358Z,20.65
2023-03-22T12:04:35.020Z,26.30
2023-03-22T12:07:03.708Z,20.98
2023-03-22T12:09:41.909Z,20.88
2023-03-22T12:12:11.998Z,21.20
2023-03-22T12:15:10.973Z,17.83
2023-03-22T12:17:56.057Z,17.38
2023-03-22T12:20:25.627Z,19.38
2023-03-22T12:22:55.488Z,15.40
2023-03-22T12:25:31.010Z,15.07
2023-03-22T12:27:59.326Z,16.25
2023-03-22T12:30:31.497Z,12.00
2023-03-22T12:33:03.721Z,17.70
2023-03-22T12:35:35.222Z,10.18
2023-03-22T12:38:09.964Z,10.68
2023-03-22T12:40:41.105Z,13.60
2023-03-22T12:43:17.500Z,9.10
2023-03-22T12:45:49.128Z,9.25
2023-03-22T12:48:18.739Z,12.60
2023-03-22T12:50:51.380Z,14.57
2023-03-22T12:53:19.121Z,10.80
2023-03-22T12:55:50.697Z,12.10
2023-03-22T12:58:20.820Z,10.50
2023-03-22T13:00:53.994Z,11.43
2023-03-22T13:03:24.714Z,8.50
2023-03-22T13:06:02.544Z,12.15
2023-03-22T13:08:48.927Z,12.85
2023-03-22T13:11:22.575Z,10.63
2023-03-22T13:13:49.060Z,10.52
2023-03-22T13:16:17.152Z,10.18
2023-03-22T13:18:49.715Z,13.40
2023-03-22T13:21:16.494Z,9.13
2023-03-22T13:23:53.528Z,7.10
2023-03-22T13:26:20.671Z,10.57
2023-03-22T13:28:57.400Z,12.23
2023-03-22T13:31:37.986Z,8.75
2023-03-22T13:34:04.947Z,7.18
2023-03-22T13:36:32.012Z,8.07
2023-03-22T13:38:59.483Z,6.55
2023-03-22T13:41:30.681Z,8.27
2023-03-22T13:44:02.015Z,7.43
2023-03-22T13:46:28.517Z,6.35
2023-03-22T13:48:54.971Z,9.40
2023-03-22T13:51:25.499Z,13.50
2023-03-22T13:53:58.010Z,11.52
2023-03-22T13:56:43.229Z,8.15
2023-03-22T13:59:34.027Z,10.77
2023-03-22T14:02:04.830Z,11.20
2023-03-22T14:07:04.289Z,9.48
2023-03-22T14:09:35.785Z,10.55
2023-03-22T14:12:11.460Z,10.10
2023-03-22T14:14:41.948Z,10.93
2023-03-22T14:17:26.922Z,8.48
2023-03-22T14:19:53.521Z,10.32
